Time,TemperatureF,DewpointF,PressureIn,WindDirection,WindDirectionDegrees,WindSpeedMPH,WindSpeedGustMPH,Humidity,HourlyPrecipIn,Conditions,Clouds,dailyrainin,SolarRadiationWatts/m^2,SoftwareType,DateUTC
2013-03-18 00:10:00,39.0,7.0,29.98,WNW,286,3.0,5.0,26,-99.99,,,-99.99,0.000000,,2013-03-18 07:10:00,
2013-03-18 00:52:00,39.0,7.0,29.98,WNW,286,3.0,5.0,26,-99.99,,,-99.99,0.000000,,2013-03-18 07:52:00,
2013-03-18 01:02:00,39.0,7.0,29.98,WNW,286,3.0,5.0,26,-99.99,,,-99.99,0.000000,,2013-03-18 08:02:00,
2013-03-18 01:10:00,35.0,7.0,29.98,East,98,4.0,9.0,30,-99.99,,,-99.99,0.000000,,2013-03-18 08:10:00,
2013-03-18 01:52:00,35.0,7.0,29.98,East,98,4.0,9.0,30,-99.99,,,-99.99,0.000000,,2013-03-18 08:52:00,
2013-03-18 02:02:00,35.0,7.0,29.98,East,98,4.0,9.0,30,-99.99,,,-99.99,0.000000,,2013-03-18 09:02:00,
2013-03-18 02:10:00,37.0,7.0,29.98,North,350,6.0,11.0,28,-99.99,,,-99.99,0.000000,,2013-03-18 09:10:00,
2013-03-18 02:53:00,37.0,7.0,29.98,North,350,6.0,11.0,28,-99.99,,,-99.99,0.000000,,2013-03-18 09:53:00,
2013-03-18 03:03:00,37.0,7.0,29.98,North,350,6.0,11.0,28,-99.99,,,-99.99,0.000000,,2013-03-18 10:03:00,
2013-03-18 03:10:00,36.0,7.0,29.98,North,356,4.0,7.0,29,-99.99,,,-99.99,0.000000,,2013-03-18 10:10:00,
2013-03-18 03:52:00,36.0,7.0,29.98,North,356,4.0,7.0,29,-99.99,,,-99.99,0.000000,,2013-03-18 10:52:00,
2013-03-18 04:03:00,36.0,7.0,29.98,North,356,4.0,7.0,29,-99.99,,,-99.99,0.000000,,2013-03-18 11:03:00,
2013-03-18 04:52:00,39.0,7.0,29.98,North,7,10.0,16.0,26,-99.99,,,-99.99,0.000000,,2013-03-18 11:52:00,
2013-03-18 05:10:00,34.0,7.0,29.98,SSW,205,3.0,7.0,32,-99.99,,,-99.99,0.000000,,2013-03-18 12:10:00,
2013-03-18 05:52:00,34.0,7.0,29.98,SSW,205,3.0,7.0,32,-99.99,,,-99.99,0.000000,,2013-03-18 12:52:00,
2013-03-18 06:02:00,34.0,7.0,29.98,SSW,205,3.0,7.0,32,-99.99,,,-99.99,0.000000,,2013-03-18 13:02:00,
2013-03-18 06:10:00,33.0,9.0,30.00,East,80,4.0,10.0,36,-99.99,,,-99.99,0.000000,,2013-03-18 13:10:00,
2013-03-18 06:52:00,33.0,9.0,30.00,East,80,4.0,10.0,36,-99.99,,,-99.99,0.000000,,2013-03-18 13:52:00,
2013-03-18 07:02:00,33.0,9.0,30.00,East,80,4.0,10.0,36,-99.99,,,-99.99,0.000000,,2013-03-18 14:02:00,
2013-03-18 07:10:00,34.0,9.0,30.03,NNE,30,4.0,6.0,34,-99.99,,,-99.99,30.000000,,2013-03-18 14:10:00,
2013-03-18 07:52:00,34.0,9.0,30.03,NNE,30,4.0,6.0,34,-99.99,,,-99.99,30.000000,,2013-03-18 14:52:00,
2013-03-18 08:02:00,34.0,9.0,30.03,NNE,30,4.0,6.0,34,-99.99,,,-99.99,30.000000,,2013-03-18 15:02:00,
2013-03-18 08:10:00,41.0,11.0,30.05,ENE,67,6.0,10.0,29,-99.99,,,-99.99,240.000000,,2013-03-18 15:10:00,
2013-03-18 08:52:00,41.0,11.0,30.05,ENE,67,6.0,10.0,29,-99.99,,,-99.99,240.000000,,2013-03-18 15:52:00,
2013-03-18 09:10:00,45.0,10.0,30.07,NNE,33,4.0,8.0,23,-99.99,,,-99.99,460.000000,,2013-03-18 16:10:00,
2013-03-18 09:52:00,45.0,10.0,30.07,NNE,33,4.0,8.0,23,-99.99,,,-99.99,460.000000,,2013-03-18 16:52:00,
2013-03-18 10:02:00,45.0,10.0,30.07,NNE,33,4.0,8.0,23,-99.99,,,-99.99,460.000000,,2013-03-18 17:02:00,
2013-03-18 10:10:00,46.0,10.0,30.07,East,86,8.0,13.0,22,-99.99,,,-99.99,650.000000,,2013-03-18 17:10:00,
2013-03-18 10:52:00,46.0,10.0,30.07,East,86,8.0,13.0,22,-99.99,,,-99.99,650.000000,,2013-03-18 17:52:00,
2013-03-18 11:02:00,46.0,10.0,30.07,East,86,8.0,13.0,22,-99.99,,,-99.99,650.000000,,2013-03-18 18:02:00,
2013-03-18 11:10:00,48.0,10.0,30.06,NW,323,12.0,23.0,21,-99.99,,,-99.99,800.000000,,2013-03-18 18:10:00,
2013-03-18 11:52:00,48.0,10.0,30.06,NW,323,12.0,23.0,21,-99.99,,,-99.99,800.000000,,2013-03-18 18:52:00,
2013-03-18 12:02:00,48.0,10.0,30.06,NW,323,12.0,23.0,21,-99.99,,,-99.99,800.000000,,2013-03-18 19:02:00,
2013-03-18 12:10:00,49.0,13.0,30.06,West,272,16.0,24.0,23,-99.99,,,-99.99,880.000000,,2013-03-18 19:10:00,
2013-03-18 12:52:00,49.0,13.0,30.06,West,272,16.0,24.0,23,-99.99,,,-99.99,880.000000,,2013-03-18 19:52:00,
2013-03-18 13:02:00,49.0,13.0,30.06,West,272,16.0,24.0,23,-99.99,,,-99.99,880.000000,,2013-03-18 20:02:00,
2013-03-18 13:10:00,51.0,10.0,30.04,WNW,303,12.0,23.0,19,-99.99,,,-99.99,890.000000,,2013-03-18 20:10:00,
2013-03-18 14:02:00,51.0,10.0,30.04,WNW,303,12.0,23.0,19,-99.99,,,-99.99,890.000000,,2013-03-18 21:02:00,
2013-03-18 14:10:00,54.0,11.0,30.03,SSE,149,4.0,9.0,17,-99.99,,,-99.99,840.000000,,2013-03-18 21:10:00,
2013-03-18 14:52:00,54.0,11.0,30.03,SSE,149,4.0,9.0,17,-99.99,,,-99.99,840.000000,,2013-03-18 21:52:00,
2013-03-18 15:03:00,54.0,11.0,30.03,SSE,149,4.0,9.0,17,-99.99,,,-99.99,840.000000,,2013-03-18 22:03:00,
2013-03-18 15:10:00,54.0,13.0,30.01,West,278,11.0,18.0,19,-99.99,,,-99.99,700.000000,,2013-03-18 22:10:00,
2013-03-18 15:52:00,54.0,13.0,30.01,West,278,11.0,18.0,19,-99.99,,,-99.99,700.000000,,2013-03-18 22:52:00,
2013-03-18 16:02:00,54.0,13.0,30.01,West,278,11.0,18.0,19,-99.99,,,-99.99,700.000000,,2013-03-18 23:02:00,
2013-03-18 16:10:00,54.0,10.0,30.00,WNW,296,10.0,18.0,17,-99.99,,,-99.99,530.000000,,2013-03-18 23:10:00,
2013-03-18 16:52:00,54.0,10.0,30.00,WNW,296,10.0,18.0,17,-99.99,,,-99.99,530.000000,,2013-03-18 23:52:00,
2013-03-18 17:02:00,54.0,10.0,30.00,WNW,296,10.0,18.0,17,-99.99,,,-99.99,530.000000,,2013-03-19 00:02:00,
2013-03-18 17:10:00,54.0,10.0,29.99,West,272,9.0,23.0,17,-99.99,,,-99.99,300.000000,,2013-03-19 00:10:00,
2013-03-18 17:52:00,54.0,10.0,29.99,West,272,9.0,23.0,17,-99.99,,,-99.99,300.000000,,2013-03-19 00:52:00,
2013-03-18 18:02:00,54.0,10.0,29.99,West,272,9.0,23.0,17,-99.99,,,-99.99,300.000000,,2013-03-19 01:02:00,
2013-03-18 18:10:00,52.0,9.0,29.99,West,281,9.0,16.0,18,-99.99,,,-99.99,40.000000,,2013-03-19 01:10:00,
2013-03-18 18:52:00,52.0,9.0,29.99,West,281,9.0,16.0,18,-99.99,,,-99.99,40.000000,,2013-03-19 01:52:00,
2013-03-18 19:02:00,52.0,9.0,29.99,West,281,9.0,16.0,18,-99.99,,,-99.99,40.000000,,2013-03-19 02:02:00,
2013-03-18 19:10:00,48.0,9.0,29.99,ESE,106,1.0,4.0,20,-99.99,,,-99.99,0.000000,,2013-03-19 02:10:00,
2013-03-18 19:52:00,48.0,9.0,29.99,ESE,106,1.0,4.0,20,-99.99,,,-99.99,0.000000,,2013-03-19 02:52:00,
2013-03-18 20:02:00,48.0,9.0,29.99,ESE,106,1.0,4.0,20,-99.99,,,-99.99,0.000000,,2013-03-19 03:02:00,
2013-03-18 20:10:00,45.0,11.0,30.00,WNW,288,5.0,7.0,24,-99.99,,,-99.99,0.000000,,2013-03-19 03:10:00,
2013-03-18 20:53:00,45.0,11.0,30.00,WNW,288,5.0,7.0,24,-99.99,,,-99.99,0.000000,,2013-03-19 03:53:00,
2013-03-18 21:03:00,45.0,11.0,30.00,WNW,288,5.0,7.0,24,-99.99,,,-99.99,0.000000,,2013-03-19 04:03:00,
2013-03-18 21:10:00,43.0,12.0,30.02,WSW,251,2.0,4.0,28,-99.99,,,-99.99,0.000000,,2013-03-19 04:10:00,
2013-03-18 21:52:00,43.0,12.0,30.02,WSW,251,2.0,4.0,28,-99.99,,,-99.99,0.000000,,2013-03-19 04:52:00,
2013-03-18 22:02:00,43.0,12.0,30.02,WSW,251,2.0,4.0,28,-99.99,,,-99.99,0.000000,,2013-03-19 05:02:00,
2013-03-18 22:10:00,45.0,14.0,30.04,NNW,337,8.0,12.0,29,-99.99,,,-99.99,0.000000,,2013-03-19 05:10:00,
2013-03-18 22:52:00,45.0,14.0,30.04,NNW,337,8.0,12.0,29,-99.99,,,-99.99,0.000000,,2013-03-19 05:52:00,
2013-03-18 23:02:00,45.0,14.0,30.04,NNW,337,8.0,12.0,29,-99.99,,,-99.99,0.000000,,2013-03-19 06:02:00,